Time;durP1;ratioP1;P1;durP2;ratioP2;P2;SDS_P1;SDS_P2;PMS_P1;PMS_P2;Temp;Humidity;BMP_temperature;BMP_pressure;BME280_temperature;BME280_humidity;BME280_pressure;Samples;Min_cycle;Max_cycle;Signal;HPM_P1;HPM_P2
2022/03/15 00:00:36;;;;;;;;;;;;;;;;;;5034909;28;1161;-69
2022/03/15 00:03:03;;;;;;;;;;;;;;;;;;5035195;28;1924;-69
2022/03/15 00:05:30;;;;;;;;;;;;;;;;;;5017495;28;1384;-69
2022/03/15 00:07:58;;;;;;;;;;;;;;;;;;5034982;28;939;-69
2022/03/15 00:10:24;;;;;;;;;;;;;;;;;;5034908;28;1135;-69
2022/03/15 00:12:51;;;;;;;;;;;;;;;;;;5035073;28;1054;-69
2022/03/15 00:15:18;;;;;;;;;;;;;;;;;;5034866;28;1293;-69
2022/03/15 00:17:44;;;;;;;;;;;;;;;;;;5034563;28;1083;-69
2022/03/15 00:20:11;;;;;;;;;;;;;;;;;;5017289;28;1485;-69
2022/03/15 00:22:39;;;;;;;;;;;;;;;;;;5034727;28;1918;-69
2022/03/15 00:25:06;;;;;;;;;;;;;;;;;;5035001;28;1328;-69
2022/03/15 00:27:32;;;;;;;;;;;;;;;;;;5034821;28;1139;-68
2022/03/15 00:29:59;;;;;;;;;;;;;;;;;;5035400;28;798;-68
2022/03/15 00:32:25;;;;;;;;;;;;;;;;;;5034588;28;1078;-69
2022/03/15 00:34:52;;;;;;;;;;;;;;;;;;5034537;28;1329;-69
2022/03/15 00:37:18;;;;;;;;;;;;;;;;;;5034219;28;976;-68
2022/03/15 00:39:45;;;;;;;;;;;;;;;;;;5016828;28;1242;-68
2022/03/15 00:42:12;;;;;;;;;;;;;;;;;;5034394;28;1926;-69
2022/03/15 00:44:38;;;;;;;;;;;;;;;;;;5034309;28;1134;-69
2022/03/15 00:47:05;;;;;;;;;;;;;;;;;;5034081;28;1320;-68
2022/03/15 00:49:32;;;;;;;;;;;;;;;;;;5016576;28;957;-68
2022/03/15 00:51:58;;;;;;;;;;;;;;;;;;5034454;28;1098;-68
2022/03/15 00:54:24;;;;;;;;;;;;;;;;;;5034261;28;977;-68
2022/03/15 00:56:52;;;;;;;;;;;;;;;;;;5033760;28;1329;-69
2022/03/15 00:59:19;;;;;;;;;;;;;;;;;;5050973;22;2005;-66
2022/03/15 01:01:45;;;;;;;;;;;;;;;;;;5034223;28;1587;-68
2022/03/15 01:04:12;;;;;;;;;;;;;;;;;;5034411;28;1981;-66
2022/03/15 01:06:38;;;;;;;;;;;;;;;;;;5016347;28;1283;-68
2022/03/15 01:09:07;;;;;;;;;;;;;;;;;;5033883;28;1298;-68
2022/03/15 01:11:35;;;;;;;;;;;;;;;;;;5032898;28;858;-68
2022/03/15 01:14:03;;;;;;;;;;;;;;;;;;5033711;28;980;-67
2022/03/15 01:16:29;;;;;;;;;;;;;;;;;;5033578;28;981;-67
2022/03/15 01:18:57;;;;;;;;;;;;;;;;;;5016030;28;1396;-68
2022/03/15 01:21:25;;;;;;;;;;;;;;;;;;5016126;28;928;-68
2022/03/15 01:23:51;;;;;;;;;;;;;;;;;;5033698;28;1977;-67
2022/03/15 01:26:18;;;;;;;;;;;;;;;;;;5033427;28;794;-68
2022/03/15 01:28:44;;;;;;;;;;;;;;;;;;5015961;28;1415;-68
2022/03/15 01:31:12;;;;;;;;;;;;;;;;;;5033524;28;850;-68
2022/03/15 01:33:38;;;;;;;;;;;;;;;;;;5015980;28;1052;-68
2022/03/15 01:36:05;;;;;;;;;;;;;;;;;;5033509;28;798;-68
2022/03/15 01:38:34;;;;;;;;;;;;;;;;;;5033646;28;1401;-68
2022/03/15 01:41:00;;;;;;;;;;;;;;;;;;5015807;28;1553;-68
2022/03/15 01:43:26;;;;;;;;;;;;;;;;;;5033348;28;1980;-68
2022/03/15 01:45:53;;;;;;;;;;;;;;;;;;5033306;28;1114;-68
2022/03/15 01:48:21;;;;;;;;;;;;;;;;;;5015168;28;1325;-68
2022/03/15 01:50:47;;;;;;;;;;;;;;;;;;5015394;28;1182;-68
2022/03/15 01:53:14;;;;;;;;;;;;;;;;;;5033010;28;1086;-68
2022/03/15 01:55:40;;;;;;;;;;;;;;;;;;5015225;28;1720;-68
2022/03/15 01:58:06;;;;;;;;;;;;;;;;;;5014823;28;1415;-68
2022/03/15 02:00:33;;;;;;;;;;;;;;;;;;5015362;28;1400;-67
2022/03/15 02:03:02;;;;;;;;;;;;;;;;;;5015105;28;1960;-68
2022/03/15 02:05:29;;;;;;;;;;;;;;;;;;5032900;28;1082;-68
2022/03/15 02:07:56;;;;;;;;;;;;;;;;;;5032256;28;1303;-67
2022/03/15 02:10:22;;;;;;;;;;;;;;;;;;5032640;28;1090;-68
2022/03/15 02:12:49;;;;;;;;;;;;;;;;;;5032658;28;897;-68
2022/03/15 02:15:15;;;;;;;;;;;;;;;;;;5032444;28;1105;-68
2022/03/15 02:17:41;;;;;;;;;;;;;;;;;;5032446;28;888;-67
2022/03/15 02:20:09;;;;;;;;;;;;;;;;;;5032533;28;1336;-67
2022/03/15 02:22:35;;;;;;;;;;;;;;;;;;5032382;28;1918;-68
2022/03/15 02:25:05;;;;;;;;;;;;;;;;;;5032659;28;946;-67
2022/03/15 02:27:31;;;;;;;;;;;;;;;;;;5033126;28;1091;-68
2022/03/15 02:29:57;;;;;;;;;;;;;;;;;;5032355;28;1328;-68
2022/03/15 02:32:23;;;;;;;;;;;;;;;;;;5032321;28;1138;-68
2022/03/15 02:34:49;;;;;;;;;;;;;;;;;;5032511;28;972;-68
2022/03/15 02:37:17;;;;;;;;;;;;;;;;;;5032211;28;1154;-67
2022/03/15 02:39:43;;;;;;;;;;;;;;;;;;5032178;28;1407;-68
2022/03/15 02:42:10;;;;;;;;;;;;;;;;;;5032105;28;1173;-68
2022/03/15 02:44:36;;;;;;;;;;;;;;;;;;5032149;28;1918;-68
2022/03/15 02:47:03;;;;;;;;;;;;;;;;;;5031713;28;1082;-68
2022/03/15 02:49:29;;;;;;;;;;;;;;;;;;5031791;28;1333;-68
2022/03/15 02:51:55;;;;;;;;;;;;;;;;;;5032037;28;1009;-68
2022/03/15 02:54:23;;;;;;;;;;;;;;;;;;5028634;28;1464;-68
2022/03/15 02:56:50;;;;;;;;;;;;;;;;;;5031620;28;1142;-67
2022/03/15 02:59:17;;;;;;;;;;;;;;;;;;5031577;28;1376;-68
2022/03/15 03:01:43;;;;;;;;;;;;;;;;;;5031900;28;1039;-68
2022/03/15 03:04:10;;;;;;;;;;;;;;;;;;5031656;28;1924;-68
2022/03/15 03:06:36;;;;;;;;;;;;;;;;;;5031653;28;905;-68
2022/03/15 03:09:03;;;;;;;;;;;;;;;;;;5031667;28;1467;-68
2022/03/15 03:11:30;;;;;;;;;;;;;;;;;;5031526;28;1147;-68
2022/03/15 03:13:59;;;;;;;;;;;;;;;;;;5031426;28;845;-68
2022/03/15 03:16:26;;;;;;;;;;;;;;;;;;5031260;28;961;-68
2022/03/15 03:18:54;;;;;;;;;;;;;;;;;;5031436;28;1352;-68
2022/03/15 03:21:20;;;;;;;;;;;;;;;;;;5031602;28;1118;-68
2022/03/15 03:23:46;;;;;;;;;;;;;;;;;;5028122;28;2494;-67
2022/03/15 03:26:13;;;;;;;;;;;;;;;;;;5039047;28;1380;-67
2022/03/15 03:28:40;;;;;;;;;;;;;;;;;;5042961;28;1484;-67
2022/03/15 03:31:07;;;;;;;;;;;;;;;;;;5051174;28;1082;-67
2022/03/15 03:33:34;;;;;;;;;;;;;;;;;;5050891;28;925;-67
2022/03/15 03:36:00;;;;;;;;;;;;;;;;;;5051281;28;1149;-67
2022/03/15 03:38:26;;;;;;;;;;;;;;;;;;5050936;28;1322;-68
2022/03/15 03:40:53;;;;;;;;;;;;;;;;;;5051099;28;1149;-68
2022/03/15 03:43:20;;;;;;;;;;;;;;;;;;5051015;28;1978;-67
2022/03/15 03:45:47;;;;;;;;;;;;;;;;;;5051349;28;1075;-68
2022/03/15 03:48:13;;;;;;;;;;;;;;;;;;5050666;28;1300;-67
2022/03/15 03:50:40;;;;;;;;;;;;;;;;;;5051455;28;1123;-67
2022/03/15 03:53:06;;;;;;;;;;;;;;;;;;5051367;28;895;-68
2022/03/15 03:55:32;;;;;;;;;;;;;;;;;;5051695;28;1090;-68
2022/03/15 03:57:58;;;;;;;;;;;;;;;;;;5051193;28;1312;-68
2022/03/15 04:00:24;;;;;;;;;;;;;;;;;;5051027;28;1147;-68
2022/03/15 04:02:53;;;;;;;;;;;;;;;;;;5033040;28;1977;-68
2022/03/15 04:05:19;;;;;;;;;;;;;;;;;;5050891;28;1091;-68
2022/03/15 04:07:46;;;;;;;;;;;;;;;;;;5050700;28;827;-67
2022/03/15 04:10:12;;;;;;;;;;;;;;;;;;5050744;28;1288;-68
2022/03/15 04:12:38;;;;;;;;;;;;;;;;;;5051025;28;1075;-67
2022/03/15 04:15:05;;;;;;;;;;;;;;;;;;5050954;28;1121;-67
2022/03/15 04:17:32;;;;;;;;;;;;;;;;;;5050561;28;1087;-68
2022/03/15 04:19:59;;;;;;;;;;;;;;;;;;5050870;28;1385;-68
2022/03/15 04:22:25;;;;;;;;;;;;;;;;;;5050907;28;874;-68
2022/03/15 04:24:52;;;;;;;;;;;;;;;;;;5050869;28;1918;-68
2022/03/15 04:27:18;;;;;;;;;;;;;;;;;;5050489;28;1142;-68
2022/03/15 04:29:44;;;;;;;;;;;;;;;;;;5050706;28;1378;-67
2022/03/15 04:32:11;;;;;;;;;;;;;;;;;;5050803;28;1137;-68
2022/03/15 04:34:37;;;;;;;;;;;;;;;;;;5051003;28;1063;-68
2022/03/15 04:37:06;;;;;;;;;;;;;;;;;;5050366;28;822;-67
2022/03/15 04:39:33;;;;;;;;;;;;;;;;;;5050526;28;1308;-68
2022/03/15 04:41:59;;;;;;;;;;;;;;;;;;5050737;28;913;-68
2022/03/15 04:44:25;;;;;;;;;;;;;;;;;;5050534;28;1981;-68
2022/03/15 04:46:51;;;;;;;;;;;;;;;;;;5052757;28;810;-68
2022/03/15 04:49:18;;;;;;;;;;;;;;;;;;5036385;28;1324;-67
2022/03/15 04:51:46;;;;;;;;;;;;;;;;;;5054301;28;849;-67
2022/03/15 04:54:16;;;;;;;;;;;;;;;;;;5054226;28;801;-68
2022/03/15 04:56:43;;;;;;;;;;;;;;;;;;5053913;28;1111;-67
2022/03/15 04:59:09;;;;;;;;;;;;;;;;;;5023525;28;1459;-67
2022/03/15 05:01:35;;;;;;;;;;;;;;;;;;5014262;28;960;-67
2022/03/15 05:04:01;;;;;;;;;;;;;;;;;;5014079;28;1973;-68
2022/03/15 05:06:27;;;;;;;;;;;;;;;;;;5014162;28;1057;-68
2022/03/15 05:08:54;;;;;;;;;;;;;;;;;;5014610;28;1320;-67
2022/03/15 05:11:21;;;;;;;;;;;;;;;;;;5017767;28;1485;-68
2022/03/15 05:13:47;;;;;;;;;;;;;;;;;;5029903;28;1472;-67
2022/03/15 05:16:17;;;;;;;;;;;;;;;;;;5030530;28;1489;-67
2022/03/15 05:18:44;;;;;;;;;;;;;;;;;;5013916;28;1303;-68
2022/03/15 05:21:12;;;;;;;;;;;;;;;;;;5013879;28;996;-68
2022/03/15 05:23:39;;;;;;;;;;;;;;;;;;4996305;28;1923;-68
2022/03/15 05:26:05;;;;;;;;;;;;;;;;;;5013518;28;1095;-65
2022/03/15 05:28:32;;;;;;;;;;;;;;;;;;5017348;28;1590;-68
2022/03/15 05:30:59;;;;;;;;;;;;;;;;;;5028536;28;1579;-68
2022/03/15 05:33:25;;;;;;;;;;;;;;;;;;5013646;28;1142;-68
2022/03/15 05:35:51;;;;;;;;;;;;;;;;;;5013908;28;874;-68
2022/03/15 05:38:18;;;;;;;;;;;;;;;;;;5013165;28;1366;-68
2022/03/15 05:40:44;;;;;;;;;;;;;;;;;;5024503;28;1587;-68
2022/03/15 05:43:11;;;;;;;;;;;;;;;;;;5022044;28;1657;-67
2022/03/15 05:45:38;;;;;;;;;;;;;;;;;;5031679;28;1975;-67
2022/03/15 05:48:05;;;;;;;;;;;;;;;;;;5020241;28;1646;-67
2022/03/15 05:50:31;;;;;;;;;;;;;;;;;;5013316;28;1123;-67
2022/03/15 05:52:57;;;;;;;;;;;;;;;;;;5013285;28;1091;-67
2022/03/15 05:55:24;;;;;;;;;;;;;;;;;;5021043;28;1552;-68
2022/03/15 05:57:50;;;;;;;;;;;;;;;;;;5028803;28;1529;-68
2022/03/15 06:00:17;;;;;;;;;;;;;;;;;;5030372;28;1385;-68
2022/03/15 06:02:44;;;;;;;;;;;;;;;;;;5031132;28;1035;-68
2022/03/15 06:05:11;;;;;;;;;;;;;;;;;;5030650;28;1977;-67
2022/03/15 06:07:43;;;;;;;;;;;;;;;;;;5019310;28;1543;-69
2022/03/15 06:10:09;;;;;;;;;;;;;;;;;;5008800;28;1381;-69
2022/03/15 06:12:36;;;;;;;;;;;;;;;;;;5011059;28;1140;-68
2022/03/15 06:15:02;;;;;;;;;;;;;;;;;;5010865;28;862;-68
2022/03/15 06:17:28;;;;;;;;;;;;;;;;;;5010585;28;1142;-68
2022/03/15 06:19:55;;;;;;;;;;;;;;;;;;5018676;28;1560;-68
2022/03/15 06:22:22;;;;;;;;;;;;;;;;;;5018596;28;1067;-69
2022/03/15 06:24:48;;;;;;;;;;;;;;;;;;5031335;28;1918;-68
2022/03/15 06:27:14;;;;;;;;;;;;;;;;;;5031939;28;1091;-68
2022/03/15 06:29:40;;;;;;;;;;;;;;;;;;5032414;28;1299;-68
2022/03/15 06:32:07;;;;;;;;;;;;;;;;;;5012717;28;1407;-69
2022/03/15 06:34:33;;;;;;;;;;;;;;;;;;5031972;28;1268;-67
2022/03/15 06:37:01;;;;;;;;;;;;;;;;;;5015757;28;1150;-68
2022/03/15 06:39:27;;;;;;;;;;;;;;;;;;5027403;28;1402;-68
2022/03/15 06:41:54;;;;;;;;;;;;;;;;;;5031640;28;1665;-69
2022/03/15 06:44:22;;;;;;;;;;;;;;;;;;5017028;28;1920;-69
2022/03/15 06:46:49;;;;;;;;;;;;;;;;;;5032127;28;1132;-68
2022/03/15 06:49:15;;;;;;;;;;;;;;;;;;5028767;28;1416;-68
2022/03/15 06:51:41;;;;;;;;;;;;;;;;;;5044067;28;1397;-68
2022/03/15 06:54:08;;;;;;;;;;;;;;;;;;5031675;28;1404;-68
2022/03/15 06:56:39;;;;;;;;;;;;;;;;;;5032666;28;1232;-68
2022/03/15 06:59:05;;;;;;;;;;;;;;;;;;5041686;22;3583;-69
2022/03/15 07:01:31;;;;;;;;;;;;;;;;;;5011807;28;1080;-69
2022/03/15 07:03:57;;;;;;;;;;;;;;;;;;5011883;28;1922;-69
2022/03/15 07:06:24;;;;;;;;;;;;;;;;;;5007172;28;1547;-69
2022/03/15 07:08:50;;;;;;;;;;;;;;;;;;5019795;28;1408;-69
2022/03/15 07:11:17;;;;;;;;;;;;;;;;;;5031194;28;1078;-69
2022/03/15 07:13:44;;;;;;;;;;;;;;;;;;5031384;28;1153;-69
2022/03/15 07:16:12;;;;;;;;;;;;;;;;;;5012714;28;1432;-68
2022/03/15 07:18:39;;;;;;;;;;;;;;;;;;5016353;28;1575;-69
2022/03/15 07:21:05;;;;;;;;;;;;;;;;;;5018831;28;1416;-69
2022/03/15 07:23:31;;;;;;;;;;;;;;;;;;4992503;28;1265;-69
2022/03/15 07:25:57;;;;;;;;;;;;;;;;;;4994098;28;1914;-68
2022/03/15 07:28:25;;;;;;;;;;;;;;;;;;5011440;28;1319;-68
2022/03/15 07:30:51;;;;;;;;;;;;;;;;;;5011259;28;1150;-69
2022/03/15 07:33:17;;;;;;;;;;;;;;;;;;5023609;28;1623;-69
2022/03/15 07:35:43;;;;;;;;;;;;;;;;;;5028422;28;1298;-68
2022/03/15 07:38:09;;;;;;;;;;;;;;;;;;5011929;28;1397;-68
2022/03/15 07:40:37;;;;;;;;;;;;;;;;;;5010923;28;1148;-68
2022/03/15 07:43:03;;;;;;;;;;;;;;;;;;5011634;28;1324;-68
2022/03/15 07:45:31;;;;;;;;;;;;;;;;;;5011509;28;1970;-68
2022/03/15 07:47:57;;;;;;;;;;;;;;;;;;5010858;28;957;-68
2022/03/15 07:50:25;;;;;;;;;;;;;;;;;;5011189;28;1421;-68
2022/03/15 07:52:53;;;;;;;;;;;;;;;;;;5011271;28;887;-68
2022/03/15 07:55:21;;;;;;;;;;;;;;;;;;5011158;28;1024;-68
2022/03/15 07:57:47;;;;;;;;;;;;;;;;;;5021148;28;1615;-68
2022/03/15 08:00:14;;;;;;;;;;;;;;;;;;5030683;28;1286;-68
2022/03/15 08:02:43;;;;;;;;;;;;;;;;;;4995808;28;1290;-69
2022/03/15 08:05:09;;;;;;;;;;;;;;;;;;5010767;28;1910;-68
2022/03/15 08:07:36;;;;;;;;;;;;;;;;;;5010790;28;814;-68
2022/03/15 08:10:03;;;;;;;;;;;;;;;;;;5029199;28;1655;-69
2022/03/15 08:12:29;;;;;;;;;;;;;;;;;;5030771;28;809;-69
2022/03/15 08:14:55;;;;;;;;;;;;;;;;;;5031006;28;1063;-69
2022/03/15 08:17:22;;;;;;;;;;;;;;;;;;5014471;28;1623;-68
2022/03/15 08:19:49;;;;;;;;;;;;;;;;;;5010784;28;1381;-68
2022/03/15 08:22:15;;;;;;;;;;;;;;;;;;5013303;28;1500;-68
2022/03/15 08:24:42;;;;;;;;;;;;;;;;;;5016084;28;1914;-68
2022/03/15 08:27:08;;;;;;;;;;;;;;;;;;5014642;28;1468;-68
2022/03/15 08:29:35;;;;;;;;;;;;;;;;;;5023692;28;1637;-68
2022/03/15 08:32:01;;;;;;;;;;;;;;;;;;5014613;28;951;-69
2022/03/15 08:34:28;;;;;;;;;;;;;;;;;;5014409;28;1298;-68
2022/03/15 08:36:55;;;;;;;;;;;;;;;;;;5014439;28;1095;-68
2022/03/15 08:39:23;;;;;;;;;;;;;;;;;;5028097;28;1670;-68
2022/03/15 08:41:51;;;;;;;;;;;;;;;;;;5014953;28;1679;-69
2022/03/15 08:44:18;;;;;;;;;;;;;;;;;;5014247;28;1914;-69
2022/03/15 08:46:45;;;;;;;;;;;;;;;;;;5016803;28;1734;-69
2022/03/15 08:49:11;;;;;;;;;;;;;;;;;;5016879;28;1635;-68
2022/03/15 08:51:37;;;;;;;;;;;;;;;;;;5002612;28;1505;-67
2022/03/15 08:54:05;;;;;;;;;;;;;;;;;;5014697;28;850;-69
2022/03/15 08:56:31;;;;;;;;;;;;;;;;;;5013755;28;1385;-69
2022/03/15 08:58:57;;;;;;;;;;;;;;;;;;5013934;28;1544;-69
2022/03/15 09:01:23;;;;;;;;;;;;;;;;;;5014168;28;1078;-69
2022/03/15 09:03:50;;;;;;;;;;;;;;;;;;5013849;28;1148;-69
2022/03/15 09:06:16;;;;;;;;;;;;;;;;;;5013959;28;1973;-68
2022/03/15 09:08:42;;;;;;;;;;;;;;;;;;5026600;28;1419;-70
2022/03/15 09:11:09;;;;;;;;;;;;;;;;;;5032114;28;1662;-69
2022/03/15 09:13:36;;;;;;;;;;;;;;;;;;5025991;28;1563;-69
2022/03/15 09:16:03;;;;;;;;;;;;;;;;;;5014010;28;1449;-70
2022/03/15 09:18:29;;;;;;;;;;;;;;;;;;5013783;28;1426;-69
2022/03/15 09:20:55;;;;;;;;;;;;;;;;;;5016761;28;1733;-70
2022/03/15 09:23:22;;;;;;;;;;;;;;;;;;4996063;28;1441;-70
2022/03/15 09:25:49;;;;;;;;;;;;;;;;;;5010427;28;1971;-69
2022/03/15 09:28:17;;;;;;;;;;;;;;;;;;5014406;28;2063;-70
2022/03/15 09:30:43;;;;;;;;;;;;;;;;;;5021781;28;1350;-71
2022/03/15 09:33:09;;;;;;;;;;;;;;;;;;5021871;28;946;-70
2022/03/15 09:35:40;;;;;;;;;;;;;;;;;;5014494;28;1590;-70
2022/03/15 09:38:06;;;;;;;;;;;;;;;;;;5012876;28;1079;-69
2022/03/15 09:40:33;;;;;;;;;;;;;;;;;;5013452;28;1232;-69
2022/03/15 09:43:00;;;;;;;;;;;;;;;;;;5013322;28;1113;-70
2022/03/15 09:45:29;;;;;;;;;;;;;;;;;;5013470;28;1973;-69
2022/03/15 09:47:56;;;;;;;;;;;;;;;;;;5012873;28;1140;-70
2022/03/15 09:50:24;;;;;;;;;;;;;;;;;;5016398;28;1604;-69
2022/03/15 09:52:50;;;;;;;;;;;;;;;;;;5012976;28;1264;-69
2022/03/15 09:55:16;;;;;;;;;;;;;;;;;;5012951;28;1130;-69
2022/03/15 09:57:42;;;;;;;;;;;;;;;;;;5012892;28;1615;-69
2022/03/15 10:00:12;;;;;;;;;;;;;;;;;;5012966;28;1305;-69
2022/03/15 10:02:41;;;;;;;;;;;;;;;;;;5012923;28;1059;-69
2022/03/15 10:05:07;;;;;;;;;;;;;;;;;;5012719;28;1922;-69
2022/03/15 10:07:34;;;;;;;;;;;;;;;;;;5012640;28;1556;-69
2022/03/15 10:10:01;;;;;;;;;;;;;;;;;;5013696;28;1709;-70
2022/03/15 10:12:27;;;;;;;;;;;;;;;;;;5012635;28;894;-68
2022/03/15 10:14:56;;;;;;;;;;;;;;;;;;5012791;28;1087;-69
2022/03/15 10:17:22;;;;;;;;;;;;;;;;;;5017558;28;1436;-69
2022/03/15 10:19:53;;;;;;;;;;;;;;;;;;5024153;28;1396;-69
2022/03/15 10:22:20;;;;;;;;;;;;;;;;;;5012332;28;980;-69
2022/03/15 10:24:47;;;;;;;;;;;;;;;;;;5012580;28;1028;-69
2022/03/15 10:27:13;;;;;;;;;;;;;;;;;;5012411;28;1979;-69
2022/03/15 10:29:39;;;;;;;;;;;;;;;;;;5012418;28;1392;-69
2022/03/15 10:32:06;;;;;;;;;;;;;;;;;;5011929;28;975;-69
2022/03/15 10:34:32;;;;;;;;;;;;;;;;;;5014784;28;1676;-69
2022/03/15 10:37:00;;;;;;;;;;;;;;;;;;5011650;28;1159;-69
2022/03/15 10:39:26;;;;;;;;;;;;;;;;;;4994629;28;1341;-69
2022/03/15 10:41:53;;;;;;;;;;;;;;;;;;5015880;28;1560;-70
2022/03/15 10:44:20;;;;;;;;;;;;;;;;;;5017808;28;2147;-68
2022/03/15 10:46:57;;;;;;;;;;;;;;;;;;5031509;28;1910;-70
2022/03/15 10:49:23;;;;;;;;;;;;;;;;;;5015865;28;1674;-69
2022/03/15 10:51:51;;;;;;;;;;;;;;;;;;4994455;28;1672;-69
2022/03/15 10:54:18;;;;;;;;;;;;;;;;;;5029487;28;1579;-69
2022/03/15 10:56:51;;;;;;;;;;;;;;;;;;5011557;28;1480;-69
2022/03/15 10:59:18;;;;;;;;;;;;;;;;;;5011799;28;1340;-69
2022/03/15 11:01:44;;;;;;;;;;;;;;;;;;5011384;28;1393;-69
2022/03/15 11:04:11;;;;;;;;;;;;;;;;;;5011634;28;1268;-70
2022/03/15 11:06:38;;;;;;;;;;;;;;;;;;5011262;28;1918;-70
2022/03/15 11:09:23;;;;;;;;;;;;;;;;;;5011536;28;1373;-70
2022/03/15 11:11:53;;;;;;;;;;;;;;;;;;5012032;28;1414;-69
2022/03/15 11:14:28;;;;;;;;;;;;;;;;;;5011757;28;1114;-70
2022/03/15 11:16:54;;;;;;;;;;;;;;;;;;5000328;28;968;-70
2022/03/15 11:19:20;;;;;;;;;;;;;;;;;;5014628;28;1682;-70
2022/03/15 11:21:47;;;;;;;;;;;;;;;;;;5011366;28;897;-69
2022/03/15 11:24:13;;;;;;;;;;;;;;;;;;5011368;28;945;-69
2022/03/15 11:26:44;;;;;;;;;;;;;;;;;;5010914;28;1967;-69
2022/03/15 11:29:10;;;;;;;;;;;;;;;;;;5022256;28;1583;-69
2022/03/15 11:31:38;;;;;;;;;;;;;;;;;;5020437;28;1348;-69
2022/03/15 11:34:04;;;;;;;;;;;;;;;;;;5010488;28;1515;-70
2022/03/15 11:36:30;;;;;;;;;;;;;;;;;;5012198;28;1570;-70
2022/03/15 11:38:56;;;;;;;;;;;;;;;;;;5010867;28;1392;-69
2022/03/15 11:41:23;;;;;;;;;;;;;;;;;;5011172;28;1136;-69
2022/03/15 11:44:00;;;;;;;;;;;;;;;;;;5015193;28;1592;-69
2022/03/15 11:46:28;;;;;;;;;;;;;;;;;;5010908;28;1918;-69
2022/03/15 11:48:56;;;;;;;;;;;;;;;;;;5011235;28;1405;-67
2022/03/15 11:51:25;;;;;;;;;;;;;;;;;;5011262;28;792;-70
2022/03/15 11:53:54;;;;;;;;;;;;;;;;;;5011236;28;1072;-70
2022/03/15 11:56:22;;;;;;;;;;;;;;;;;;5025832;28;1638;-69
2022/03/15 11:58:54;;;;;;;;;;;;;;;;;;5015168;28;1618;-69
2022/03/15 12:01:21;;;;;;;;;;;;;;;;;;5015011;28;945;-69
2022/03/15 12:03:47;;;;;;;;;;;;;;;;;;5015190;28;1146;-69
2022/03/15 12:06:17;;;;;;;;;;;;;;;;;;5014905;28;1906;-69
2022/03/15 12:08:43;;;;;;;;;;;;;;;;;;5014895;28;1420;-70
2022/03/15 12:11:09;;;;;;;;;;;;;;;;;;5014923;28;952;-69
2022/03/15 12:13:39;;;;;;;;;;;;;;;;;;5014823;28;1095;-69
2022/03/15 12:16:11;;;;;;;;;;;;;;;;;;5014576;28;895;-66
2022/03/15 12:18:44;;;;;;;;;;;;;;;;;;5015180;28;1334;-69
2022/03/15 12:21:11;;;;;;;;;;;;;;;;;;5014743;28;1306;-69
2022/03/15 12:23:40;;;;;;;;;;;;;;;;;;5014844;28;933;-69
2022/03/15 12:26:16;;;;;;;;;;;;;;;;;;5014210;28;1981;-69
2022/03/15 12:28:42;;;;;;;;;;;;;;;;;;5032455;28;1583;-70
2022/03/15 12:31:10;;;;;;;;;;;;;;;;;;5026314;28;1646;-69
2022/03/15 12:33:36;;;;;;;;;;;;;;;;;;5009792;28;1473;-70
2022/03/15 12:36:03;;;;;;;;;;;;;;;;;;5022720;28;1408;-69
2022/03/15 12:38:37;;;;;;;;;;;;;;;;;;5013178;28;1611;-69
2022/03/15 12:41:03;;;;;;;;;;;;;;;;;;5014407;28;1416;-68
2022/03/15 12:43:30;;;;;;;;;;;;;;;;;;5014882;28;1670;-68
2022/03/15 12:45:59;;;;;;;;;;;;;;;;;;5014056;28;1911;-67
2022/03/15 12:48:30;;;;;;;;;;;;;;;;;;5021735;28;1538;-69
2022/03/15 12:50:59;;;;;;;;;;;;;;;;;;5025777;28;1299;-70
2022/03/15 12:53:34;;;;;;;;;;;;;;;;;;5017054;28;1583;-69
2022/03/15 12:56:01;;;;;;;;;;;;;;;;;;5014274;28;861;-70
2022/03/15 12:58:27;;;;;;;;;;;;;;;;;;5013769;28;1368;-69
2022/03/15 13:00:53;;;;;;;;;;;;;;;;;;5047523;22;4046;-69
2022/03/15 13:03:19;;;;;;;;;;;;;;;;;;5040395;28;1293;-69
2022/03/15 13:05:47;;;;;;;;;;;;;;;;;;5047557;28;1914;-69
2022/03/15 13:08:15;;;;;;;;;;;;;;;;;;5049073;28;1480;-68
2022/03/15 13:10:42;;;;;;;;;;;;;;;;;;5045776;28;1574;-70
2022/03/15 13:13:13;;;;;;;;;;;;;;;;;;5034143;28;1087;-71
2022/03/15 13:15:40;;;;;;;;;;;;;;;;;;5035955;28;1615;-70
2022/03/15 13:18:08;;;;;;;;;;;;;;;;;;5033271;28;945;-70
2022/03/15 13:20:35;;;;;;;;;;;;;;;;;;5033612;28;1464;-70
2022/03/15 13:23:03;;;;;;;;;;;;;;;;;;5032857;28;1236;-70
2022/03/15 13:25:36;;;;;;;;;;;;;;;;;;5033593;28;1071;-70
2022/03/15 13:28:08;;;;;;;;;;;;;;;;;;5032972;28;1914;-70
2022/03/15 13:30:37;;;;;;;;;;;;;;;;;;5033050;28;1394;-69
2022/03/15 13:33:03;;;;;;;;;;;;;;;;;;5036857;28;1432;-69
2022/03/15 13:35:29;;;;;;;;;;;;;;;;;;5048422;28;1633;-70
2022/03/15 13:37:56;;;;;;;;;;;;;;;;;;5037819;28;2223;-68
2022/03/15 13:40:29;;;;;;;;;;;;;;;;;;5036608;28;1598;-69
2022/03/15 13:43:00;;;;;;;;;;;;;;;;;;5051552;28;1717;-71
2022/03/15 13:45:27;;;;;;;;;;;;;;;;;;5044101;28;1614;-69
2022/03/15 13:47:53;;;;;;;;;;;;;;;;;;5032680;28;1981;-68
2022/03/15 13:50:23;;;;;;;;;;;;;;;;;;5028009;28;1430;-70
2022/03/15 13:52:49;;;;;;;;;;;;;;;;;;5032009;28;1477;-69
2022/03/15 13:55:19;;;;;;;;;;;;;;;;;;5032638;28;1134;-70
2022/03/15 13:57:47;;;;;;;;;;;;;;;;;;5051128;28;2143;-68
2022/03/15 14:00:17;;;;;;;;;;;;;;;;;;5052126;28;2089;-68
2022/03/15 14:02:44;;;;;;;;;;;;;;;;;;5038168;28;1633;-70
2022/03/15 14:05:13;;;;;;;;;;;;;;;;;;5032417;28;1079;-70
2022/03/15 14:07:40;;;;;;;;;;;;;;;;;;5032215;28;1914;-70
2022/03/15 14:10:08;;;;;;;;;;;;;;;;;;5037553;28;1669;-70
2022/03/15 14:12:35;;;;;;;;;;;;;;;;;;5032636;28;1107;-69
2022/03/15 14:15:05;;;;;;;;;;;;;;;;;;5032927;28;985;-69
2022/03/15 14:17:42;;;;;;;;;;;;;;;;;;5031887;28;1611;-70
2022/03/15 14:20:12;;;;;;;;;;;;;;;;;;5032104;28;1386;-70
2022/03/15 14:22:44;;;;;;;;;;;;;;;;;;5035945;28;1626;-69
2022/03/15 14:25:11;;;;;;;;;;;;;;;;;;5012340;28;1135;-69
2022/03/15 14:27:40;;;;;;;;;;;;;;;;;;5040919;28;1965;-70
2022/03/15 14:30:08;;;;;;;;;;;;;;;;;;5050251;28;1582;-69
2022/03/15 14:32:35;;;;;;;;;;;;;;;;;;5039302;28;1618;-70
2022/03/15 14:35:05;;;;;;;;;;;;;;;;;;5014236;28;1004;-70
2022/03/15 14:37:31;;;;;;;;;;;;;;;;;;5029731;28;1006;-68
2022/03/15 14:40:03;;;;;;;;;;;;;;;;;;5019888;28;1344;-71
2022/03/15 14:42:30;;;;;;;;;;;;;;;;;;5033577;28;1602;-70
2022/03/15 14:44:56;;;;;;;;;;;;;;;;;;5051847;28;1189;-70
2022/03/15 14:47:25;;;;;;;;;;;;;;;;;;5046402;28;1918;-70
2022/03/15 14:49:51;;;;;;;;;;;;;;;;;;5046702;28;1636;-69
2022/03/15 14:52:18;;;;;;;;;;;;;;;;;;5024627;28;2532;-71
2022/03/15 14:54:44;;;;;;;;;;;;;;;;;;5031776;28;1146;-70
2022/03/15 14:57:10;;;;;;;;;;;;;;;;;;5031456;28;1095;-68
2022/03/15 14:59:37;;;;;;;;;;;;;;;;;;5031726;28;980;-68
2022/03/15 15:02:06;;;;;;;;;;;;;;;;;;5031087;28;1623;-69
2022/03/15 15:04:34;;;;;;;;;;;;;;;;;;5031798;28;1087;-68
2022/03/15 15:07:09;;;;;;;;;;;;;;;;;;5031127;28;1922;-67
2022/03/15 15:09:35;;;;;;;;;;;;;;;;;;5031140;28;1321;-69
2022/03/15 15:12:06;;;;;;;;;;;;;;;;;;5032531;28;1630;-69
2022/03/15 15:14:33;;;;;;;;;;;;;;;;;;5051689;28;673;-70
2022/03/15 15:17:05;;;;;;;;;;;;;;;;;;5044761;28;1649;-66
2022/03/15 15:19:31;;;;;;;;;;;;;;;;;;5031549;28;1090;-68
2022/03/15 15:22:00;;;;;;;;;;;;;;;;;;5031416;28;1332;-70
2022/03/15 15:24:27;;;;;;;;;;;;;;;;;;5039605;28;936;-69
2022/03/15 15:26:55;;;;;;;;;;;;;;;;;;5030567;28;2051;-68
2022/03/15 15:29:21;;;;;;;;;;;;;;;;;;5033017;28;1049;-69
2022/03/15 15:31:48;;;;;;;;;;;;;;;;;;5042758;28;1524;-69
2022/03/15 15:34:15;;;;;;;;;;;;;;;;;;5045738;28;1622;-68
2022/03/15 15:36:44;;;;;;;;;;;;;;;;;;5032784;28;1021;-68
2022/03/15 15:39:12;;;;;;;;;;;;;;;;;;5031234;28;1143;-68
2022/03/15 15:41:38;;;;;;;;;;;;;;;;;;5031216;28;1587;-69
2022/03/15 15:44:05;;;;;;;;;;;;;;;;;;5039061;28;1697;-69
2022/03/15 15:46:32;;;;;;;;;;;;;;;;;;5035935;28;1969;-68
2022/03/15 15:48:58;;;;;;;;;;;;;;;;;;5034756;28;898;-68
2022/03/15 15:51:27;;;;;;;;;;;;;;;;;;5030752;28;1306;-69
2022/03/15 15:53:53;;;;;;;;;;;;;;;;;;5034731;28;1576;-68
2022/03/15 15:56:21;;;;;;;;;;;;;;;;;;5030553;28;1432;-69
2022/03/15 15:58:47;;;;;;;;;;;;;;;;;;5030854;28;1412;-69
2022/03/15 16:01:16;;;;;;;;;;;;;;;;;;5030721;28;1297;-69
2022/03/15 16:03:42;;;;;;;;;;;;;;;;;;5030514;28;1103;-69
2022/03/15 16:06:09;;;;;;;;;;;;;;;;;;5030466;28;980;-68
2022/03/15 16:08:35;;;;;;;;;;;;;;;;;;5030529;28;1926;-69
2022/03/15 16:11:03;;;;;;;;;;;;;;;;;;5030760;28;1433;-71
2022/03/15 16:13:30;;;;;;;;;;;;;;;;;;5031156;28;1107;-70
2022/03/15 16:15:57;;;;;;;;;;;;;;;;;;5042653;28;1637;-69
2022/03/15 16:18:23;;;;;;;;;;;;;;;;;;5030260;28;1146;-70
2022/03/15 16:20:50;;;;;;;;;;;;;;;;;;5030313;28;1459;-69
2022/03/15 16:23:16;;;;;;;;;;;;;;;;;;5030486;28;1142;-70
2022/03/15 16:25:44;;;;;;;;;;;;;;;;;;5029820;28;1256;-69
2022/03/15 16:28:10;;;;;;;;;;;;;;;;;;5030046;28;1992;-69
2022/03/15 16:30:39;;;;;;;;;;;;;;;;;;5030250;28;1333;-69
2022/03/15 16:33:05;;;;;;;;;;;;;;;;;;5030441;28;1459;-70
2022/03/15 16:35:31;;;;;;;;;;;;;;;;;;5030660;28;964;-69
2022/03/15 16:37:58;;;;;;;;;;;;;;;;;;5030257;28;1083;-70
2022/03/15 16:40:24;;;;;;;;;;;;;;;;;;5030531;28;1423;-69
2022/03/15 16:42:52;;;;;;;;;;;;;;;;;;5033961;28;876;-69
2022/03/15 16:45:19;;;;;;;;;;;;;;;;;;5034418;28;1647;-70
2022/03/15 16:47:47;;;;;;;;;;;;;;;;;;5046351;28;1914;-70
2022/03/15 16:50:13;;;;;;;;;;;;;;;;;;5054280;28;1333;-69
2022/03/15 16:52:40;;;;;;;;;;;;;;;;;;5040294;28;1531;-70
2022/03/15 16:55:07;;;;;;;;;;;;;;;;;;5036202;28;1551;-69
2022/03/15 16:57:33;;;;;;;;;;;;;;;;;;5043232;28;1566;-69
2022/03/15 17:00:00;;;;;;;;;;;;;;;;;;5014898;28;1606;-70
2022/03/15 17:02:26;;;;;;;;;;;;;;;;;;5030276;28;1733;-69
2022/03/15 17:07:39;;;;;;;;;;;;;;;;;;5051296;28;1977;-69